Time;durP1;ratioP1;P1;durP2;ratioP2;P2;SDS_P1;SDS_P2;PMS_P1;PMS_P2;Temp;Humidity;BMP_temperature;BMP_pressure;BME280_temperature;BME280_humidity;BME280_pressure;Samples;Min_cycle;Max_cycle;Signal;HPM_P1;HPM_P2
2023/01/04 00:01:30;;;;;;;;;;;;;;;;;;4449408;32;19975;-76
2023/01/04 00:03:55;;;;;;;;;;;;;;;;;;4451953;32;20247;-77
2023/01/04 00:06:20;;;;;;;;;;;;;;;;;;4448625;32;19932;-76
2023/01/04 00:08:45;;;;;;;;;;;;;;;;;;4450981;32;19941;-75
2023/01/04 00:11:10;;;;;;;;;;;;;;;;;;4448478;32;19951;-76
2023/01/04 00:13:35;;;;;;;;;;;;;;;;;;4449569;32;20054;-76
2023/01/04 00:16:00;;;;;;;;;;;;;;;;;;4449627;32;19960;-76
2023/01/04 00:18:26;;;;;;;;;;;;;;;;;;4451037;32;20047;-77
2023/01/04 00:20:51;;;;;;;;;;;;;;;;;;4447004;32;20336;-76
2023/01/04 00:23:16;;;;;;;;;;;;;;;;;;4452147;32;19976;-76
2023/01/04 00:25:41;;;;;;;;;;;;;;;;;;4453973;32;19940;-77
2023/01/04 00:28:06;;;;;;;;;;;;;;;;;;4438769;32;19947;-77
2023/01/04 00:30:31;;;;;;;;;;;;;;;;;;4437646;32;19999;-75
2023/01/04 00:32:56;;;;;;;;;;;;;;;;;;4451578;32;19984;-76
2023/01/04 00:35:21;;;;;;;;;;;;;;;;;;4451009;32;19940;-76
2023/01/04 00:37:46;;;;;;;;;;;;;;;;;;4438072;32;20033;-76
2023/01/04 00:40:11;;;;;;;;;;;;;;;;;;4452096;32;19947;-77
2023/01/04 00:42:37;;;;;;;;;;;;;;;;;;4437273;32;19995;-76
2023/01/04 00:45:02;;;;;;;;;;;;;;;;;;4451627;32;20006;-77
2023/01/04 00:47:27;;;;;;;;;;;;;;;;;;4438332;32;19944;-76
2023/01/04 00:49:52;;;;;;;;;;;;;;;;;;4453389;32;19983;-77
2023/01/04 00:52:17;;;;;;;;;;;;;;;;;;4439036;32;20357;-78
2023/01/04 00:54:42;;;;;;;;;;;;;;;;;;4453604;32;19941;-77
2023/01/04 00:57:07;;;;;;;;;;;;;;;;;;4453785;32;19947;-76
2023/01/04 00:59:32;;;;;;;;;;;;;;;;;;4453951;32;19967;-76
2023/01/04 01:01:58;;;;;;;;;;;;;;;;;;4441913;32;19944;-76
2023/01/04 01:04:23;;;;;;;;;;;;;;;;;;4442075;32;19976;-78
2023/01/04 01:06:48;;;;;;;;;;;;;;;;;;4453656;32;19988;-77
2023/01/04 01:09:13;;;;;;;;;;;;;;;;;;4453837;32;19970;-76
2023/01/04 01:11:39;;;;;;;;;;;;;;;;;;4438574;32;19932;-76
2023/01/04 01:14:04;;;;;;;;;;;;;;;;;;4454157;32;19961;-76
2023/01/04 01:16:29;;;;;;;;;;;;;;;;;;4458737;32;19947;-75
2023/01/04 01:18:54;;;;;;;;;;;;;;;;;;4449125;32;19947;-76
2023/01/04 01:21:19;;;;;;;;;;;;;;;;;;4458524;32;19943;-77
2023/01/04 01:23:44;;;;;;;;;;;;;;;;;;4454516;32;19968;-76
2023/01/04 01:26:09;;;;;;;;;;;;;;;;;;4451992;32;19987;-77
2023/01/04 01:28:35;;;;;;;;;;;;;;;;;;4452887;32;19933;-77
2023/01/04 01:31:00;;;;;;;;;;;;;;;;;;4450605;32;19937;-77
2023/01/04 01:33:25;;;;;;;;;;;;;;;;;;4450451;32;20322;-76
2023/01/04 01:35:50;;;;;;;;;;;;;;;;;;4451872;32;20022;-77
2023/01/04 01:38:15;;;;;;;;;;;;;;;;;;4449927;32;19956;-77
2023/01/04 01:40:40;;;;;;;;;;;;;;;;;;4450382;32;19937;-77
2023/01/04 01:43:05;;;;;;;;;;;;;;;;;;4451273;32;19936;-77
2023/01/04 01:45:30;;;;;;;;;;;;;;;;;;4451985;32;19950;-77
2023/01/04 01:47:55;;;;;;;;;;;;;;;;;;4450978;32;20064;-78
2023/01/04 01:50:21;;;;;;;;;;;;;;;;;;4451557;32;20000;-78
2023/01/04 01:52:46;;;;;;;;;;;;;;;;;;4452173;32;20385;-78
2023/01/04 01:55:11;;;;;;;;;;;;;;;;;;4450606;32;19937;-77
2023/01/04 01:57:36;;;;;;;;;;;;;;;;;;4451374;32;19956;-78
2023/01/04 02:00:01;;;;;;;;;;;;;;;;;;4453715;32;19937;-78
2023/01/04 02:02:26;;;;;;;;;;;;;;;;;;4445839;32;19937;-78
2023/01/04 02:04:51;;;;;;;;;;;;;;;;;;4453036;32;19951;-77
2023/01/04 02:07:16;;;;;;;;;;;;;;;;;;4452216;32;19946;-76
2023/01/04 02:09:41;;;;;;;;;;;;;;;;;;4453409;32;19968;-75
2023/01/04 02:12:07;;;;;;;;;;;;;;;;;;4453689;32;19932;-76
2023/01/04 02:14:32;;;;;;;;;;;;;;;;;;4453294;32;19937;-76
2023/01/04 02:16:57;;;;;;;;;;;;;;;;;;4438898;32;19937;-76
2023/01/04 02:19:22;;;;;;;;;;;;;;;;;;4438225;32;19967;-76
2023/01/04 02:21:47;;;;;;;;;;;;;;;;;;4452217;32;19972;-76
2023/01/04 02:24:12;;;;;;;;;;;;;;;;;;4453135;32;19998;-74
2023/01/04 02:26:37;;;;;;;;;;;;;;;;;;4452674;32;19951;-75
2023/01/04 02:29:02;;;;;;;;;;;;;;;;;;4452224;32;19959;-75
2023/01/04 02:31:28;;;;;;;;;;;;;;;;;;4452510;32;19944;-74
2023/01/04 02:33:53;;;;;;;;;;;;;;;;;;4451256;32;19936;-74
2023/01/04 02:36:18;;;;;;;;;;;;;;;;;;4452362;32;20350;-75
2023/01/04 02:38:43;;;;;;;;;;;;;;;;;;4450124;32;19996;-75
2023/01/04 02:41:08;;;;;;;;;;;;;;;;;;4452406;32;19956;-74
2023/01/04 02:46:17;;;;;;;;;;;;;;;;;;4454266;32;19980;-74
2023/01/04 02:51:26;;;;;;;;;;;;;;;;;;4452176;32;20293;-74
2023/01/04 02:53:51;;;;;;;;;;;;;;;;;;4452982;32;19980;-74
2023/01/04 02:56:16;;;;;;;;;;;;;;;;;;4452059;32;19940;-75
2023/01/04 02:58:41;;;;;;;;;;;;;;;;;;4438391;32;19936;-74
2023/01/04 03:06:34;;;;;;;;;;;;;;;;;;4453294;32;20012;-74
2023/01/04 03:08:59;;;;;;;;;;;;;;;;;;4453455;32;20369;-74
2023/01/04 03:14:08;;;;;;;;;;;;;;;;;;4453219;32;20279;-75
2023/01/04 03:16:33;;;;;;;;;;;;;;;;;;4451733;32;19937;-74
2023/01/04 03:19:03;;;;;;;;;;;;;;;;;;4437957;32;19975;-75
2023/01/04 03:21:28;;;;;;;;;;;;;;;;;;4451630;32;19980;-74
2023/01/04 03:37:33;;;;;;;;;;;;;;;;;;4452076;32;19931;-74
2023/01/04 03:48:30;;;;;;;;;;;;;;;;;;4451995;32;19969;-74
2023/01/04 03:50:55;;;;;;;;;;;;;;;;;;4452566;32;19932;-74
2023/01/04 03:53:20;;;;;;;;;;;;;;;;;;4456206;32;19932;-74
2023/01/04 03:55:45;;;;;;;;;;;;;;;;;;4454896;32;19936;-71
2023/01/04 03:58:10;;;;;;;;;;;;;;;;;;4456784;32;19932;-75
2023/01/04 04:00:35;;;;;;;;;;;;;;;;;;4456460;32;19936;-74
2023/01/04 04:03:11;;;;;;;;;;;;;;;;;;4456223;32;19969;-74
2023/01/04 04:08:29;;;;;;;;;;;;;;;;;;4467122;32;20300;-73
2023/01/04 04:10:54;;;;;;;;;;;;;;;;;;4440737;32;19992;-74
2023/01/04 04:13:19;;;;;;;;;;;;;;;;;;4455649;32;19933;-74
2023/01/04 04:15:44;;;;;;;;;;;;;;;;;;4455641;32;19984;-75
2023/01/04 04:18:09;;;;;;;;;;;;;;;;;;4440246;32;19941;-74
2023/01/04 04:20:35;;;;;;;;;;;;;;;;;;4454402;32;19952;-74
2023/01/04 04:23:00;;;;;;;;;;;;;;;;;;4453955;32;19989;-74
2023/01/04 04:25:25;;;;;;;;;;;;;;;;;;4455881;32;19968;-74
2023/01/04 04:27:50;;;;;;;;;;;;;;;;;;4440512;32;19966;-75
2023/01/04 04:30:15;;;;;;;;;;;;;;;;;;4455790;32;19932;-73
2023/01/04 04:32:40;;;;;;;;;;;;;;;;;;4440272;32;19937;-74
2023/01/04 04:35:05;;;;;;;;;;;;;;;;;;4454314;32;20034;-74
2023/01/04 04:37:31;;;;;;;;;;;;;;;;;;4439820;32;20289;-74
2023/01/04 04:39:56;;;;;;;;;;;;;;;;;;4440065;32;19933;-73
2023/01/04 04:42:21;;;;;;;;;;;;;;;;;;4455468;32;19947;-74
2023/01/04 04:44:46;;;;;;;;;;;;;;;;;;4453787;32;19993;-74
2023/01/04 04:47:11;;;;;;;;;;;;;;;;;;4454124;32;19989;-73
2023/01/04 04:49:36;;;;;;;;;;;;;;;;;;4455096;32;19957;-76
2023/01/04 04:52:01;;;;;;;;;;;;;;;;;;4439231;32;20016;-74
2023/01/04 04:54:26;;;;;;;;;;;;;;;;;;4438719;32;19963;-75
2023/01/04 04:56:51;;;;;;;;;;;;;;;;;;4437082;32;20338;-74
2023/01/04 04:59:17;;;;;;;;;;;;;;;;;;4451507;32;19940;-75
2023/01/04 05:01:42;;;;;;;;;;;;;;;;;;4437496;32;20049;-76
2023/01/04 05:04:07;;;;;;;;;;;;;;;;;;4435968;32;19964;-76
2023/01/04 05:06:32;;;;;;;;;;;;;;;;;;4451661;32;19983;-76
2023/01/04 05:08:57;;;;;;;;;;;;;;;;;;4448881;32;19936;-76
2023/01/04 05:14:06;;;;;;;;;;;;;;;;;;4452523;32;20019;-75
2023/01/04 05:16:31;;;;;;;;;;;;;;;;;;4451734;32;20501;-77
2023/01/04 05:18:56;;;;;;;;;;;;;;;;;;4451552;32;19956;-77
2023/01/04 05:21:21;;;;;;;;;;;;;;;;;;4453065;32;19945;-77
2023/01/04 05:23:46;;;;;;;;;;;;;;;;;;4437305;32;19952;-76
2023/01/04 05:26:12;;;;;;;;;;;;;;;;;;4437924;32;19949;-77
2023/01/04 05:28:37;;;;;;;;;;;;;;;;;;4440077;32;19936;-78
2023/01/04 05:31:02;;;;;;;;;;;;;;;;;;4440460;32;19964;-78
2023/01/04 05:33:27;;;;;;;;;;;;;;;;;;4439176;32;19940;-77
2023/01/04 05:35:52;;;;;;;;;;;;;;;;;;4438472;32;20256;-77
2023/01/04 05:38:17;;;;;;;;;;;;;;;;;;4437977;32;20387;-78
2023/01/04 05:40:42;;;;;;;;;;;;;;;;;;4451880;32;20279;-78
2023/01/04 05:43:07;;;;;;;;;;;;;;;;;;4438073;32;19937;-77
2023/01/04 05:45:33;;;;;;;;;;;;;;;;;;4452123;32;20254;-77
2023/01/04 05:47:58;;;;;;;;;;;;;;;;;;4451077;32;19933;-79
2023/01/04 05:50:23;;;;;;;;;;;;;;;;;;4437571;32;20002;-79
2023/01/04 05:52:48;;;;;;;;;;;;;;;;;;4437665;32;19936;-78
2023/01/04 05:55:13;;;;;;;;;;;;;;;;;;4437756;32;19952;-78
2023/01/04 05:57:38;;;;;;;;;;;;;;;;;;4437589;32;19936;-77
2023/01/04 06:00:05;;;;;;;;;;;;;;;;;;4437284;32;19936;-77
2023/01/04 06:02:30;;;;;;;;;;;;;;;;;;4450810;32;19949;-77
2023/01/04 06:04:55;;;;;;;;;;;;;;;;;;4439530;32;19976;-77
2023/01/04 06:07:20;;;;;;;;;;;;;;;;;;4451747;32;19944;-76
2023/01/04 06:09:45;;;;;;;;;;;;;;;;;;4437309;32;19936;-78
2023/01/04 06:12:10;;;;;;;;;;;;;;;;;;4437565;32;19970;-77
2023/01/04 06:14:35;;;;;;;;;;;;;;;;;;4437158;32;19990;-78
2023/01/04 06:17:00;;;;;;;;;;;;;;;;;;4452548;32;19932;-77
2023/01/04 06:19:25;;;;;;;;;;;;;;;;;;4438728;32;19973;-77
2023/01/04 06:21:51;;;;;;;;;;;;;;;;;;4438462;32;19951;-78
2023/01/04 06:24:16;;;;;;;;;;;;;;;;;;4453344;32;20001;-78
2023/01/04 06:26:41;;;;;;;;;;;;;;;;;;4437601;32;19973;-78
2023/01/04 06:29:06;;;;;;;;;;;;;;;;;;4436903;32;19980;-78
2023/01/04 06:31:32;;;;;;;;;;;;;;;;;;4450695;32;19933;-76
2023/01/04 06:33:57;;;;;;;;;;;;;;;;;;4450501;32;19937;-74
2023/01/04 06:36:22;;;;;;;;;;;;;;;;;;4438225;32;19968;-76
2023/01/04 06:38:47;;;;;;;;;;;;;;;;;;4451345;32;19945;-78
2023/01/04 06:41:13;;;;;;;;;;;;;;;;;;4450921;32;19988;-75
2023/01/04 06:43:38;;;;;;;;;;;;;;;;;;4450922;32;19956;-75
2023/01/04 06:46:03;;;;;;;;;;;;;;;;;;4450920;32;19968;-76
2023/01/04 06:48:28;;;;;;;;;;;;;;;;;;4436762;32;19984;-76
2023/01/04 06:50:53;;;;;;;;;;;;;;;;;;4452343;32;19997;-77
2023/01/04 06:53:18;;;;;;;;;;;;;;;;;;4440990;32;19936;-77
2023/01/04 06:55:43;;;;;;;;;;;;;;;;;;4451292;32;19959;-77
2023/01/04 06:58:08;;;;;;;;;;;;;;;;;;4450404;32;19979;-76
2023/01/04 07:00:33;;;;;;;;;;;;;;;;;;4434814;32;20274;-76
2023/01/04 07:02:59;;;;;;;;;;;;;;;;;;4435181;32;20331;-76
2023/01/04 07:05:24;;;;;;;;;;;;;;;;;;4449718;32;20032;-76
2023/01/04 07:07:49;;;;;;;;;;;;;;;;;;4448205;32;19936;-76
2023/01/04 07:10:14;;;;;;;;;;;;;;;;;;4448956;32;19959;-74
2023/01/04 07:12:39;;;;;;;;;;;;;;;;;;4439347;32;19939;-75
2023/01/04 07:15:04;;;;;;;;;;;;;;;;;;4449167;32;20252;-74
2023/01/04 07:17:29;;;;;;;;;;;;;;;;;;4450209;32;19992;-76
2023/01/04 07:19:54;;;;;;;;;;;;;;;;;;4436675;32;20003;-76
2023/01/04 07:22:19;;;;;;;;;;;;;;;;;;4450403;32;19955;-76
2023/01/04 07:24:44;;;;;;;;;;;;;;;;;;4449848;32;19949;-75
2023/01/04 07:27:10;;;;;;;;;;;;;;;;;;4449572;32;19988;-73
2023/01/04 07:29:35;;;;;;;;;;;;;;;;;;4439157;32;19941;-75
2023/01/04 07:32:00;;;;;;;;;;;;;;;;;;4449418;32;19940;-76
2023/01/04 07:34:25;;;;;;;;;;;;;;;;;;4450537;32;19937;-75
2023/01/04 07:36:50;;;;;;;;;;;;;;;;;;4451493;32;19984;-75
2023/01/04 07:39:15;;;;;;;;;;;;;;;;;;4436669;32;20330;-75
2023/01/04 07:41:40;;;;;;;;;;;;;;;;;;4451756;32;19960;-76
2023/01/04 07:44:05;;;;;;;;;;;;;;;;;;4451181;32;19963;-76
2023/01/04 07:46:31;;;;;;;;;;;;;;;;;;4453439;32;19947;-77
2023/01/04 07:48:56;;;;;;;;;;;;;;;;;;4452194;32;19936;-75
2023/01/04 07:51:21;;;;;;;;;;;;;;;;;;4452815;32;20348;-75
2023/01/04 07:53:46;;;;;;;;;;;;;;;;;;4450463;32;19952;-76
2023/01/04 07:56:11;;;;;;;;;;;;;;;;;;4449890;32;19933;-76
2023/01/04 07:58:38;;;;;;;;;;;;;;;;;;4451900;32;19937;-76
2023/01/04 08:01:03;;;;;;;;;;;;;;;;;;4450724;32;19953;-75
2023/01/04 08:03:28;;;;;;;;;;;;;;;;;;4439901;32;19948;-77
2023/01/04 08:05:54;;;;;;;;;;;;;;;;;;4449321;32;19940;-77
2023/01/04 08:08:19;;;;;;;;;;;;;;;;;;4450585;32;19952;-78
2023/01/04 08:10:44;;;;;;;;;;;;;;;;;;4437920;32;19951;-77
2023/01/04 08:13:09;;;;;;;;;;;;;;;;;;4456334;32;20056;-77
2023/01/04 08:15:34;;;;;;;;;;;;;;;;;;4458665;32;19945;-76
2023/01/04 08:17:59;;;;;;;;;;;;;;;;;;4444263;32;19944;-77
2023/01/04 08:20:24;;;;;;;;;;;;;;;;;;4454037;32;19936;-75
2023/01/04 08:22:49;;;;;;;;;;;;;;;;;;4438094;32;19980;-76
2023/01/04 08:25:14;;;;;;;;;;;;;;;;;;4452501;32;19979;-76
2023/01/04 08:27:40;;;;;;;;;;;;;;;;;;4451713;32;19936;-76
2023/01/04 08:30:05;;;;;;;;;;;;;;;;;;4451222;32;20021;-77
2023/01/04 08:32:30;;;;;;;;;;;;;;;;;;4437746;32;19988;-78
2023/01/04 08:34:56;;;;;;;;;;;;;;;;;;4452174;32;19932;-77
2023/01/04 08:37:21;;;;;;;;;;;;;;;;;;4454891;32;19937;-76
2023/01/04 08:39:46;;;;;;;;;;;;;;;;;;4454767;32;19932;-77
2023/01/04 08:42:11;;;;;;;;;;;;;;;;;;4454513;32;19944;-77
2023/01/04 08:44:36;;;;;;;;;;;;;;;;;;4454617;32;20279;-77
2023/01/04 08:47:01;;;;;;;;;;;;;;;;;;4442125;32;19936;-77
2023/01/04 08:49:26;;;;;;;;;;;;;;;;;;4439681;32;19943;-77
2023/01/04 08:51:52;;;;;;;;;;;;;;;;;;4454361;32;19986;-77
2023/01/04 08:54:17;;;;;;;;;;;;;;;;;;4454165;32;19988;-77
2023/01/04 08:56:42;;;;;;;;;;;;;;;;;;4454235;32;19936;-77
2023/01/04 08:59:07;;;;;;;;;;;;;;;;;;4440596;32;20353;-76
2023/01/04 09:01:32;;;;;;;;;;;;;;;;;;4441884;32;20013;-77
2023/01/04 09:03:57;;;;;;;;;;;;;;;;;;4439787;32;19941;-75
2023/01/04 09:06:22;;;;;;;;;;;;;;;;;;4454572;32;19995;-77
2023/01/04 09:08:47;;;;;;;;;;;;;;;;;;4439562;32;19936;-76
2023/01/04 09:11:12;;;;;;;;;;;;;;;;;;4453512;32;20015;-77
2023/01/04 09:13:38;;;;;;;;;;;;;;;;;;4453424;32;19965;-77
2023/01/04 09:16:03;;;;;;;;;;;;;;;;;;4454708;32;19951;-76
2023/01/04 09:18:28;;;;;;;;;;;;;;;;;;4451969;32;19941;-76
2023/01/04 09:20:53;;;;;;;;;;;;;;;;;;4453412;32;19991;-77
2023/01/04 09:23:18;;;;;;;;;;;;;;;;;;4453153;32;19936;-75
2023/01/04 09:25:43;;;;;;;;;;;;;;;;;;4453913;32;20006;-77
2023/01/04 09:28:08;;;;;;;;;;;;;;;;;;4453129;32;19951;-77
2023/01/04 09:30:33;;;;;;;;;;;;;;;;;;4452058;32;20010;-76
2023/01/04 09:32:58;;;;;;;;;;;;;;;;;;4454233;32;19975;-77
2023/01/04 09:35:24;;;;;;;;;;;;;;;;;;4462810;32;19959;-78
2023/01/04 09:37:49;;;;;;;;;;;;;;;;;;4463431;32;19936;-76
2023/01/04 09:40:14;;;;;;;;;;;;;;;;;;4454630;32;19940;-76
2023/01/04 09:42:39;;;;;;;;;;;;;;;;;;4452868;32;19977;-77
2023/01/04 09:45:04;;;;;;;;;;;;;;;;;;4452731;32;20310;-75
2023/01/04 09:47:29;;;;;;;;;;;;;;;;;;4453137;32;19941;-76
2023/01/04 09:49:54;;;;;;;;;;;;;;;;;;4452464;32;20033;-75
2023/01/04 09:52:20;;;;;;;;;;;;;;;;;;4451581;32;19932;-75
2023/01/04 09:54:45;;;;;;;;;;;;;;;;;;4454361;32;20333;-76
2023/01/04 09:57:10;;;;;;;;;;;;;;;;;;4453287;32;19947;-77
2023/01/04 09:59:35;;;;;;;;;;;;;;;;;;4451843;32;19937;-76
2023/01/04 10:02:00;;;;;;;;;;;;;;;;;;4454136;32;19932;-77
2023/01/04 10:04:26;;;;;;;;;;;;;;;;;;4455075;32;19973;-76
2023/01/04 10:06:51;;;;;;;;;;;;;;;;;;4452601;32;19946;-77
2023/01/04 10:09:17;;;;;;;;;;;;;;;;;;4451724;32;20357;-78
2023/01/04 10:11:42;;;;;;;;;;;;;;;;;;4452238;32;19971;-77
2023/01/04 10:14:10;;;;;;;;;;;;;;;;;;4453417;32;19936;-78
2023/01/04 10:16:35;;;;;;;;;;;;;;;;;;4452444;32;19946;-77
2023/01/04 10:19:00;;;;;;;;;;;;;;;;;;4451499;32;19952;-78
2023/01/04 10:21:25;;;;;;;;;;;;;;;;;;4451453;32;19947;-78
2023/01/04 10:23:51;;;;;;;;;;;;;;;;;;4452005;32;20318;-78
2023/01/04 10:26:17;;;;;;;;;;;;;;;;;;4455639;32;19950;-78
2023/01/04 10:28:42;;;;;;;;;;;;;;;;;;4455043;32;19928;-78
2023/01/04 10:31:07;;;;;;;;;;;;;;;;;;4455737;32;19992;-78
2023/01/04 10:33:32;;;;;;;;;;;;;;;;;;4453148;32;19989;-77
2023/01/04 10:35:57;;;;;;;;;;;;;;;;;;4454259;32;19973;-79
2023/01/04 10:38:22;;;;;;;;;;;;;;;;;;4453463;32;20339;-79
2023/01/04 10:40:47;;;;;;;;;;;;;;;;;;4452974;32;19947;-79
2023/01/04 10:43:13;;;;;;;;;;;;;;;;;;4453226;32;20034;-76
2023/01/04 10:45:38;;;;;;;;;;;;;;;;;;4439141;32;19945;-78
2023/01/04 10:48:04;;;;;;;;;;;;;;;;;;4440294;32;19966;-80
2023/01/04 10:50:29;;;;;;;;;;;;;;;;;;4454954;32;19984;-78
2023/01/04 10:52:54;;;;;;;;;;;;;;;;;;4440108;32;19952;-78
2023/01/04 10:55:19;;;;;;;;;;;;;;;;;;4461357;32;19941;-77
2023/01/04 10:57:44;;;;;;;;;;;;;;;;;;4451840;32;19937;-79
2023/01/04 11:00:09;;;;;;;;;;;;;;;;;;4445589;32;19940;-78
2023/01/04 11:02:35;;;;;;;;;;;;;;;;;;4453780;32;20340;-77
2023/01/04 11:05:00;;;;;;;;;;;;;;;;;;4439223;32;20309;-77
2023/01/04 11:07:25;;;;;;;;;;;;;;;;;;4439177;32;19941;-78
2023/01/04 11:09:51;;;;;;;;;;;;;;;;;;4437922;32;19962;-78
2023/01/04 11:12:16;;;;;;;;;;;;;;;;;;4438308;32;19936;-75
2023/01/04 11:14:41;;;;;;;;;;;;;;;;;;4453824;32;19937;-77
2023/01/04 11:17:06;;;;;;;;;;;;;;;;;;4451880;32;19937;-76
2023/01/04 11:19:31;;;;;;;;;;;;;;;;;;4451912;32;19936;-77
2023/01/04 11:21:57;;;;;;;;;;;;;;;;;;4438323;32;20273;-78
2023/01/04 11:24:22;;;;;;;;;;;;;;;;;;4437783;32;19956;-78
2023/01/04 11:26:48;;;;;;;;;;;;;;;;;;4452080;32;19947;-79
2023/01/04 11:29:13;;;;;;;;;;;;;;;;;;4438443;32;19968;-78
2023/01/04 11:31:38;;;;;;;;;;;;;;;;;;4438145;32;19953;-78
2023/01/04 11:34:04;;;;;;;;;;;;;;;;;;4438161;32;20002;-79
2023/01/04 11:36:29;;;;;;;;;;;;;;;;;;4452566;32;19988;-75
2023/01/04 11:38:55;;;;;;;;;;;;;;;;;;4453744;32;19932;-78
2023/01/04 11:41:20;;;;;;;;;;;;;;;;;;4438933;32;19966;-77
2023/01/04 11:43:45;;;;;;;;;;;;;;;;;;4452521;32;20311;-81
2023/01/04 11:46:10;;;;;;;;;;;;;;;;;;4439027;32;19932;-76
2023/01/04 11:48:35;;;;;;;;;;;;;;;;;;4438205;32;19933;-76
2023/01/04 11:51:00;;;;;;;;;;;;;;;;;;4452672;32;19955;-77
2023/01/04 11:53:26;;;;;;;;;;;;;;;;;;4438729;32;19936;-76
2023/01/04 11:55:51;;;;;;;;;;;;;;;;;;4437657;32;19936;-76
2023/01/04 11:58:16;;;;;;;;;;;;;;;;;;4438178;32;19938;-77
2023/01/04 12:00:41;;;;;;;;;;;;;;;;;;4452802;32;20235;-76
2023/01/04 12:03:06;;;;;;;;;;;;;;;;;;4438538;32;19944;-76
2023/01/04 12:05:31;;;;;;;;;;;;;;;;;;4452506;32;20261;-75
2023/01/04 12:07:56;;;;;;;;;;;;;;;;;;4451985;32;19937;-76
2023/01/04 12:10:23;;;;;;;;;;;;;;;;;;4437808;32;20362;-76
2023/01/04 12:12:48;;;;;;;;;;;;;;;;;;4439796;32;19933;-76
2023/01/04 12:15:13;;;;;;;;;;;;;;;;;;4443158;32;19967;-76
2023/01/04 12:17:38;;;;;;;;;;;;;;;;;;4452542;32;19937;-76
2023/01/04 12:20:04;;;;;;;;;;;;;;;;;;4462546;32;19951;-76
2023/01/04 12:22:30;;;;;;;;;;;;;;;;;;4442481;32;20296;-77
2023/01/04 12:24:55;;;;;;;;;;;;;;;;;;4440772;32;19936;-77
2023/01/04 12:27:20;;;;;;;;;;;;;;;;;;4455161;32;19937;-77
2023/01/04 12:29:45;;;;;;;;;;;;;;;;;;4440698;32;19937;-77
2023/01/04 12:32:10;;;;;;;;;;;;;;;;;;4440234;32;19947;-76
2023/01/04 12:34:35;;;;;;;;;;;;;;;;;;4454533;32;20001;-76
2023/01/04 12:37:01;;;;;;;;;;;;;;;;;;4454471;32;19993;-76
2023/01/04 12:39:29;;;;;;;;;;;;;;;;;;4440248;32;19936;-76
2023/01/04 12:42:00;;;;;;;;;;;;;;;;;;4454423;32;20328;-76
2023/01/04 12:44:25;;;;;;;;;;;;;;;;;;4454098;32;19952;-77
2023/01/04 12:49:34;;;;;;;;;;;;;;;;;;4454153;32;19969;-76
2023/01/04 12:51:59;;;;;;;;;;;;;;;;;;4440194;32;20316;-76
2023/01/04 12:54:31;;;;;;;;;;;;;;;;;;4440060;32;20370;-76
2023/01/04 12:56:56;;;;;;;;;;;;;;;;;;4440440;32;19932;-78
2023/01/04 12:59:21;;;;;;;;;;;;;;;;;;4455060;32;19943;-76
2023/01/04 13:01:46;;;;;;;;;;;;;;;;;;4440183;32;19971;-77
2023/01/04 13:04:11;;;;;;;;;;;;;;;;;;4440471;32;20269;-75
2023/01/04 13:06:36;;;;;;;;;;;;;;;;;;4453833;32;20397;-75
2023/01/04 13:09:01;;;;;;;;;;;;;;;;;;4440779;32;20286;-76
2023/01/04 13:11:26;;;;;;;;;;;;;;;;;;4454421;32;20004;-78
2023/01/04 13:13:52;;;;;;;;;;;;;;;;;;4440158;32;19936;-76
2023/01/04 13:16:18;;;;;;;;;;;;;;;;;;4454834;32;20322;-76
2023/01/04 13:18:44;;;;;;;;;;;;;;;;;;4454629;32;20339;-76
2023/01/04 13:21:10;;;;;;;;;;;;;;;;;;4454150;32;19974;-75
2023/01/04 13:23:36;;;;;;;;;;;;;;;;;;4439318;32;19941;-76
2023/01/04 13:26:01;;;;;;;;;;;;;;;;;;4441280;32;20350;-76
2023/01/04 13:28:26;;;;;;;;;;;;;;;;;;4439431;32;20322;-76
2023/01/04 13:30:51;;;;;;;;;;;;;;;;;;4453871;32;19936;-74
2023/01/04 13:33:19;;;;;;;;;;;;;;;;;;4439897;32;19976;-76
2023/01/04 13:35:45;;;;;;;;;;;;;;;;;;4458572;32;19977;-76
2023/01/04 13:38:10;;;;;;;;;;;;;;;;;;4466343;32;19932;-75
2023/01/04 13:40:36;;;;;;;;;;;;;;;;;;4462538;32;20276;-77
2023/01/04 13:43:01;;;;;;;;;;;;;;;;;;4458926;32;19940;-75
2023/01/04 13:45:26;;;;;;;;;;;;;;;;;;4442846;32;19955;-75
2023/01/04 13:47:52;;;;;;;;;;;;;;;;;;4440899;32;19933;-76
2023/01/04 13:50:17;;;;;;;;;;;;;;;;;;4441412;32;19937;-75
2023/01/04 13:52:42;;;;;;;;;;;;;;;;;;4440492;32;19936;-76
2023/01/04 13:55:07;;;;;;;;;;;;;;;;;;4439742;32;20046;-77
2023/01/04 13:57:32;;;;;;;;;;;;;;;;;;4439630;32;19955;-75
2023/01/04 13:59:57;;;;;;;;;;;;;;;;;;4453807;32;19947;-75
2023/01/04 14:02:22;;;;;;;;;;;;;;;;;;4438968;32;19974;-76
2023/01/04 14:04:47;;;;;;;;;;;;;;;;;;4452840;32;20001;-77
2023/01/04 14:07:12;;;;;;;;;;;;;;;;;;4452754;32;20363;-75
2023/01/04 14:09:38;;;;;;;;;;;;;;;;;;4452933;32;19937;-74
2023/01/04 14:12:03;;;;;;;;;;;;;;;;;;4452166;32;19987;-75
2023/01/04 14:14:29;;;;;;;;;;;;;;;;;;4452903;32;19992;-77
2023/01/04 14:16:54;;;;;;;;;;;;;;;;;;4452600;32;19936;-76
2023/01/04 14:19:19;;;;;;;;;;;;;;;;;;4452318;32;19963;-75
2023/01/04 14:21:44;;;;;;;;;;;;;;;;;;4452576;32;19976;-76
2023/01/04 14:24:09;;;;;;;;;;;;;;;;;;4438557;32;20298;-75
2023/01/04 14:26:40;;;;;;;;;;;;;;;;;;4451597;32;19966;-76
2023/01/04 14:29:05;;;;;;;;;;;;;;;;;;4438805;32;19947;-75
2023/01/04 14:31:30;;;;;;;;;;;;;;;;;;4440463;32;19941;-75
2023/01/04 14:33:55;;;;;;;;;;;;;;;;;;4453839;32;19949;-75
2023/01/04 14:36:25;;;;;;;;;;;;;;;;;;4438079;32;19941;-76
2023/01/04 14:38:52;;;;;;;;;;;;;;;;;;4437882;32;19987;-76
2023/01/04 14:41:17;;;;;;;;;;;;;;;;;;4436822;32;19944;-77
2023/01/04 14:43:42;;;;;;;;;;;;;;;;;;4450657;32;19995;-75
2023/01/04 14:46:07;;;;;;;;;;;;;;;;;;4437700;32;19951;-76
2023/01/04 14:48:32;;;;;;;;;;;;;;;;;;4436862;32;19996;-75
2023/01/04 14:50:58;;;;;;;;;;;;;;;;;;4452045;32;19936;-75
2023/01/04 14:53:23;;;;;;;;;;;;;;;;;;4453372;32;19955;-75
2023/01/04 14:55:48;;;;;;;;;;;;;;;;;;4445595;32;19952;-76
2023/01/04 14:58:13;;;;;;;;;;;;;;;;;;4442117;32;19991;-76
2023/01/04 15:00:38;;;;;;;;;;;;;;;;;;4437234;32;19933;-75
2023/01/04 15:03:03;;;;;;;;;;;;;;;;;;4450921;32;19976;-75
2023/01/04 15:05:28;;;;;;;;;;;;;;;;;;4450683;32;19945;-75
2023/01/04 15:07:53;;;;;;;;;;;;;;;;;;4451191;32;20310;-75
2023/01/04 15:10:19;;;;;;;;;;;;;;;;;;4450541;32;19980;-75
2023/01/04 15:12:44;;;;;;;;;;;;;;;;;;4436220;32;20362;-76
2023/01/04 15:15:09;;;;;;;;;;;;;;;;;;4437171;32;19958;-75
2023/01/04 15:17:34;;;;;;;;;;;;;;;;;;4437903;32;20330;-73
2023/01/04 15:20:00;;;;;;;;;;;;;;;;;;4451123;32;19936;-75
2023/01/04 15:22:25;;;;;;;;;;;;;;;;;;4436707;32;19951;-75
2023/01/04 15:24:50;;;;;;;;;;;;;;;;;;4436602;32;19959;-75
2023/01/04 15:27:15;;;;;;;;;;;;;;;;;;4437135;32;19947;-76
2023/01/04 15:29:40;;;;;;;;;;;;;;;;;;4436960;32;19955;-76
2023/01/04 15:32:05;;;;;;;;;;;;;;;;;;4450620;32;19945;-75
2023/01/04 15:34:31;;;;;;;;;;;;;;;;;;4436520;32;19956;-74
2023/01/04 15:36:56;;;;;;;;;;;;;;;;;;4439181;32;20297;-77
2023/01/04 15:39:21;;;;;;;;;;;;;;;;;;4438151;32;19952;-75
2023/01/04 15:44:30;;;;;;;;;;;;;;;;;;4450753;32;19954;-75
2023/01/04 15:46:57;;;;;;;;;;;;;;;;;;4452488;32;19948;-75
2023/01/04 15:49:23;;;;;;;;;;;;;;;;;;4453925;32;19997;-76
2023/01/04 15:51:48;;;;;;;;;;;;;;;;;;4453673;32;19948;-76
2023/01/04 15:54:13;;;;;;;;;;;;;;;;;;4442355;32;19956;-75
2023/01/04 15:56:38;;;;;;;;;;;;;;;;;;4439846;32;19969;-75
2023/01/04 15:59:03;;;;;;;;;;;;;;;;;;4453992;32;19990;-75
2023/01/04 16:01:28;;;;;;;;;;;;;;;;;;4439826;32;19952;-74
2023/01/04 16:03:53;;;;;;;;;;;;;;;;;;4454066;32;19944;-76
2023/01/04 16:06:19;;;;;;;;;;;;;;;;;;4440631;32;19980;-75
2023/01/04 16:08:45;;;;;;;;;;;;;;;;;;4441139;32;19951;-77
2023/01/04 16:11:11;;;;;;;;;;;;;;;;;;4455315;32;19992;-75
2023/01/04 16:13:37;;;;;;;;;;;;;;;;;;4459795;32;19937;-76
2023/01/04 16:16:02;;;;;;;;;;;;;;;;;;4462764;32;19986;-76
2023/01/04 16:18:27;;;;;;;;;;;;;;;;;;4448193;32;20313;-76
2023/01/04 16:20:52;;;;;;;;;;;;;;;;;;4441728;32;19940;-83
2023/01/04 16:23:17;;;;;;;;;;;;;;;;;;4456111;32;19933;-83
2023/01/04 16:25:42;;;;;;;;;;;;;;;;;;4441518;32;19978;-81
2023/01/04 16:28:08;;;;;;;;;;;;;;;;;;4454220;32;20329;-82
2023/01/04 16:30:34;;;;;;;;;;;;;;;;;;4439712;32;19968;-79
2023/01/04 16:32:59;;;;;;;;;;;;;;;;;;4440312;32;20005;-84
2023/01/04 16:35:24;;;;;;;;;;;;;;;;;;4453600;32;19983;-81
2023/01/04 16:37:49;;;;;;;;;;;;;;;;;;4440271;32;19940;-82
2023/01/04 16:40:14;;;;;;;;;;;;;;;;;;4440897;32;19944;-80
2023/01/04 16:42:39;;;;;;;;;;;;;;;;;;4442564;32;20385;-84
2023/01/04 16:45:04;;;;;;;;;;;;;;;;;;4447155;32;19944;-80
2023/01/04 16:47:29;;;;;;;;;;;;;;;;;;4463494;32;19937;-79
2023/01/04 16:49:55;;;;;;;;;;;;;;;;;;4445426;32;19949;-80
2023/01/04 16:52:20;;;;;;;;;;;;;;;;;;4442349;32;19951;-81
2023/01/04 16:54:45;;;;;;;;;;;;;;;;;;4450159;32;20248;-80
2023/01/04 16:57:10;;;;;;;;;;;;;;;;;;4450057;32;19936;-80
2023/01/04 16:59:35;;;;;;;;;;;;;;;;;;4455551;32;20586;-78
2023/01/04 17:02:00;;;;;;;;;;;;;;;;;;4456424;32;19950;-79
2023/01/04 17:04:25;;;;;;;;;;;;;;;;;;4452551;32;20369;-82
2023/01/04 17:06:53;;;;;;;;;;;;;;;;;;4446963;32;19973;-79
2023/01/04 17:09:19;;;;;;;;;;;;;;;;;;4438253;32;19933;-80
2023/01/04 17:11:55;;;;;;;;;;;;;;;;;;4443348;32;19951;-81
2023/01/04 17:14:20;;;;;;;;;;;;;;;;;;4439585;32;20048;-80
2023/01/04 17:16:46;;;;;;;;;;;;;;;;;;4452433;32;19963;-81
2023/01/04 17:19:11;;;;;;;;;;;;;;;;;;4452703;32;19966;-82